sensor_id;sensor_type;location;lat;lon;timestamp;P1;durP1;ratioP1;P2;durP2;ratioP2
71910;SDS011;59783;52.232;5.170;2022-11-20T00:01:38;38.95;;;25.63;;
71910;SDS011;59783;52.232;5.170;2022-11-20T00:04:03;37.10;;;24.80;;
71910;SDS011;59783;52.232;5.170;2022-11-20T00:06:30;36.10;;;25.88;;
71910;SDS011;59783;52.232;5.170;2022-11-20T00:08:56;42.95;;;25.23;;
71910;SDS011;59783;52.232;5.170;2022-11-20T00:11:23;37.00;;;25.42;;
71910;SDS011;59783;52.232;5.170;2022-11-20T00:13:51;37.83;;;24.17;;
71910;SDS011;59783;52.232;5.170;2022-11-20T00:16:19;41.20;;;24.60;;
71910;SDS011;59783;52.232;5.170;2022-11-20T00:18:46;38.08;;;24.63;;
71910;SDS011;59783;52.232;5.170;2022-11-20T00:21:13;40.03;;;24.40;;
71910;SDS011;59783;52.232;5.170;2022-11-20T00:26:07;40.00;;;24.02;;
71910;SDS011;59783;52.232;5.170;2022-11-20T00:28:34;38.45;;;24.20;;
71910;SDS011;59783;52.232;5.170;2022-11-20T00:33:28;38.40;;;24.27;;
71910;SDS011;59783;52.232;5.170;2022-11-20T00:35:58;34.15;;;23.73;;
71910;SDS011;59783;52.232;5.170;2022-11-20T00:38:24;37.97;;;25.08;;
71910;SDS011;59783;52.232;5.170;2022-11-20T00:40:54;36.67;;;24.67;;
71910;SDS011;59783;52.232;5.170;2022-11-20T00:43:21;36.30;;;24.10;;
71910;SDS011;59783;52.232;5.170;2022-11-20T00:45:46;41.55;;;29.25;;
71910;SDS011;59783;52.232;5.170;2022-11-20T00:48:12;38.47;;;23.48;;
71910;SDS011;59783;52.232;5.170;2022-11-20T00:50:37;37.03;;;25.00;;
71910;SDS011;59783;52.232;5.170;2022-11-20T00:53:03;37.58;;;25.48;;
71910;SDS011;59783;52.232;5.170;2022-11-20T00:55:28;36.38;;;24.92;;
71910;SDS011;59783;52.232;5.170;2022-11-20T00:57:53;34.55;;;23.45;;
71910;SDS011;59783;52.232;5.170;2022-11-20T01:00:19;35.80;;;24.52;;
71910;SDS011;59783;52.232;5.170;2022-11-20T01:02:44;37.00;;;25.35;;
71910;SDS011;59783;52.232;5.170;2022-11-20T01:05:09;42.70;;;24.55;;
71910;SDS011;59783;52.232;5.170;2022-11-20T01:07:34;39.95;;;24.13;;
71910;SDS011;59783;52.232;5.170;2022-11-20T01:10:00;33.75;;;23.42;;
71910;SDS011;59783;52.232;5.170;2022-11-20T01:12:25;37.30;;;24.55;;
71910;SDS011;59783;52.232;5.170;2022-11-20T01:14:51;40.60;;;24.77;;
71910;SDS011;59783;52.232;5.170;2022-11-20T01:17:16;39.00;;;23.83;;
71910;SDS011;59783;52.232;5.170;2022-11-20T01:19:42;38.00;;;23.98;;
71910;SDS011;59783;52.232;5.170;2022-11-20T01:22:07;39.30;;;24.73;;
71910;SDS011;59783;52.232;5.170;2022-11-20T01:24:32;34.00;;;23.63;;
71910;SDS011;59783;52.232;5.170;2022-11-20T01:26:58;37.85;;;24.23;;
71910;SDS011;59783;52.232;5.170;2022-11-20T01:29:23;34.90;;;22.27;;
71910;SDS011;59783;52.232;5.170;2022-11-20T01:31:49;38.80;;;26.27;;
71910;SDS011;59783;52.232;5.170;2022-11-20T01:34:16;35.45;;;24.52;;
71910;SDS011;59783;52.232;5.170;2022-11-20T01:36:43;35.08;;;23.45;;
71910;SDS011;59783;52.232;5.170;2022-11-20T01:39:13;36.47;;;24.35;;
71910;SDS011;59783;52.232;5.170;2022-11-20T01:41:41;33.47;;;24.40;;
71910;SDS011;59783;52.232;5.170;2022-11-20T01:47:13;38.38;;;26.75;;
71910;SDS011;59783;52.232;5.170;2022-11-20T01:49:52;35.85;;;24.35;;
71910;SDS011;59783;52.232;5.170;2022-11-20T01:52:22;34.40;;;22.83;;
71910;SDS011;59783;52.232;5.170;2022-11-20T01:55:02;35.95;;;23.92;;
71910;SDS011;59783;52.232;5.170;2022-11-20T01:57:32;39.63;;;25.50;;
71910;SDS011;59783;52.232;5.170;2022-11-20T02:00:03;32.60;;;23.15;;
71910;SDS011;59783;52.232;5.170;2022-11-20T02:02:34;39.17;;;24.60;;
71910;SDS011;59783;52.232;5.170;2022-11-20T02:05:01;38.90;;;24.38;;
71910;SDS011;59783;52.232;5.170;2022-11-20T02:07:29;35.92;;;24.38;;
71910;SDS011;59783;52.232;5.170;2022-11-20T02:09:55;36.85;;;23.05;;
71910;SDS011;59783;52.232;5.170;2022-11-20T02:12:20;40.40;;;29.35;;
71910;SDS011;59783;52.232;5.170;2022-11-20T02:15:14;36.72;;;24.45;;
71910;SDS011;59783;52.232;5.170;2022-11-20T02:17:40;36.50;;;24.30;;
71910;SDS011;59783;52.232;5.170;2022-11-20T02:20:05;40.92;;;25.10;;
71910;SDS011;59783;52.232;5.170;2022-11-20T02:22:33;37.83;;;25.13;;
71910;SDS011;59783;52.232;5.170;2022-11-20T02:25:02;33.83;;;23.92;;
71910;SDS011;59783;52.232;5.170;2022-11-20T02:27:28;38.40;;;24.55;;
71910;SDS011;59783;52.232;5.170;2022-11-20T02:29:57;36.15;;;26.77;;
71910;SDS011;59783;52.232;5.170;2022-11-20T02:32:29;34.78;;;23.98;;
71910;SDS011;59783;52.232;5.170;2022-11-20T02:34:56;35.10;;;23.88;;
71910;SDS011;59783;52.232;5.170;2022-11-20T02:37:22;33.75;;;23.77;;
71910;SDS011;59783;52.232;5.170;2022-11-20T02:39:49;36.92;;;26.27;;
71910;SDS011;59783;52.232;5.170;2022-11-20T02:42:15;38.75;;;24.33;;
71910;SDS011;59783;52.232;5.170;2022-11-20T02:44:40;39.72;;;25.98;;
71910;SDS011;59783;52.232;5.170;2022-11-20T02:47:06;38.90;;;23.95;;
71910;SDS011;59783;52.232;5.170;2022-11-20T02:49:31;37.28;;;24.15;;
71910;SDS011;59783;52.232;5.170;2022-11-20T02:51:56;41.20;;;24.45;;
71910;SDS011;59783;52.232;5.170;2022-11-20T02:54:22;38.67;;;24.77;;
71910;SDS011;59783;52.232;5.170;2022-11-20T02:56:48;36.97;;;24.17;;
71910;SDS011;59783;52.232;5.170;2022-11-20T02:59:13;36.92;;;24.63;;
71910;SDS011;59783;52.232;5.170;2022-11-20T03:01:38;35.65;;;25.60;;
71910;SDS011;59783;52.232;5.170;2022-11-20T03:04:03;36.28;;;24.50;;
71910;SDS011;59783;52.232;5.170;2022-11-20T03:06:29;39.97;;;24.77;;
71910;SDS011;59783;52.232;5.170;2022-11-20T03:08:54;32.72;;;23.80;;
71910;SDS011;59783;52.232;5.170;2022-11-20T03:11:19;38.30;;;25.50;;
71910;SDS011;59783;52.232;5.170;2022-11-20T03:13:45;37.95;;;24.67;;
71910;SDS011;59783;52.232;5.170;2022-11-20T03:16:11;40.35;;;25.92;;
71910;SDS011;59783;52.232;5.170;2022-11-20T03:18:38;37.03;;;24.77;;
71910;SDS011;59783;52.232;5.170;2022-11-20T03:21:04;38.45;;;24.73;;
71910;SDS011;59783;52.232;5.170;2022-11-20T03:23:30;38.92;;;24.60;;
71910;SDS011;59783;52.232;5.170;2022-11-20T03:26:06;39.65;;;25.23;;
71910;SDS011;59783;52.232;5.170;2022-11-20T03:28:42;41.33;;;24.85;;
71910;SDS011;59783;52.232;5.170;2022-11-20T03:31:12;42.80;;;26.20;;
71910;SDS011;59783;52.232;5.170;2022-11-20T03:33:39;37.45;;;25.33;;
71910;SDS011;59783;52.232;5.170;2022-11-20T03:36:06;38.60;;;26.80;;
71910;SDS011;59783;52.232;5.170;2022-11-20T03:38:33;39.65;;;25.25;;
71910;SDS011;59783;52.232;5.170;2022-11-20T03:41:02;36.28;;;25.45;;
71910;SDS011;59783;52.232;5.170;2022-11-20T03:43:29;41.92;;;24.90;;
71910;SDS011;59783;52.232;5.170;2022-11-20T03:45:54;40.80;;;25.02;;
71910;SDS011;59783;52.232;5.170;2022-11-20T03:48:20;40.10;;;24.27;;
71910;SDS011;59783;52.232;5.170;2022-11-20T03:50:45;42.70;;;27.30;;
71910;SDS011;59783;52.232;5.170;2022-11-20T03:53:12;39.80;;;27.83;;
71910;SDS011;59783;52.232;5.170;2022-11-20T03:55:38;41.42;;;26.25;;
71910;SDS011;59783;52.232;5.170;2022-11-20T03:58:03;43.28;;;25.67;;
71910;SDS011;59783;52.232;5.170;2022-11-20T04:00:29;41.97;;;25.75;;
71910;SDS011;59783;52.232;5.170;2022-11-20T04:02:57;37.40;;;24.63;;
71910;SDS011;59783;52.232;5.170;2022-11-20T04:05:23;45.00;;;30.05;;
71910;SDS011;59783;52.232;5.170;2022-11-20T04:07:48;39.53;;;25.50;;
71910;SDS011;59783;52.232;5.170;2022-11-20T04:10:14;41.63;;;27.08;;
71910;SDS011;59783;52.232;5.170;2022-11-20T04:12:39;39.30;;;25.85;;
71910;SDS011;59783;52.232;5.170;2022-11-20T04:15:04;35.92;;;24.25;;
71910;SDS011;59783;52.232;5.170;2022-11-20T04:17:30;41.63;;;25.23;;
71910;SDS011;59783;52.232;5.170;2022-11-20T04:19:56;36.47;;;25.67;;
71910;SDS011;59783;52.232;5.170;2022-11-20T04:22:21;41.05;;;26.75;;
71910;SDS011;59783;52.232;5.170;2022-11-20T04:24:47;44.83;;;26.58;;
71910;SDS011;59783;52.232;5.170;2022-11-20T04:27:12;39.50;;;26.10;;
71910;SDS011;59783;52.232;5.170;2022-11-20T04:29:37;46.22;;;27.27;;
71910;SDS011;59783;52.232;5.170;2022-11-20T04:32:02;43.17;;;27.40;;
71910;SDS011;59783;52.232;5.170;2022-11-20T04:34:28;39.13;;;26.75;;
71910;SDS011;59783;52.232;5.170;2022-11-20T04:36:53;41.53;;;26.98;;
71910;SDS011;59783;52.232;5.170;2022-11-20T04:39:18;37.72;;;25.73;;
71910;SDS011;59783;52.232;5.170;2022-11-20T04:41:44;39.00;;;26.33;;
71910;SDS011;59783;52.232;5.170;2022-11-20T04:44:09;46.63;;;27.52;;
71910;SDS011;59783;52.232;5.170;2022-11-20T04:46:39;42.88;;;27.35;;
71910;SDS011;59783;52.232;5.170;2022-11-20T04:49:06;41.72;;;26.67;;
71910;SDS011;59783;52.232;5.170;2022-11-20T04:51:32;43.63;;;27.88;;
71910;SDS011;59783;52.232;5.170;2022-11-20T04:53:58;44.30;;;26.75;;
71910;SDS011;59783;52.232;5.170;2022-11-20T04:56:24;42.83;;;26.83;;
71910;SDS011;59783;52.232;5.170;2022-11-20T04:58:49;42.65;;;26.90;;
71910;SDS011;59783;52.232;5.170;2022-11-20T05:01:16;40.53;;;26.35;;
71910;SDS011;59783;52.232;5.170;2022-11-20T05:03:45;46.88;;;26.13;;
71910;SDS011;59783;52.232;5.170;2022-11-20T05:06:12;39.88;;;27.00;;
71910;SDS011;59783;52.232;5.170;2022-11-20T05:08:39;43.42;;;27.42;;
71910;SDS011;59783;52.232;5.170;2022-11-20T05:11:06;45.63;;;32.75;;
71910;SDS011;59783;52.232;5.170;2022-11-20T05:13:33;46.83;;;28.63;;
71910;SDS011;59783;52.232;5.170;2022-11-20T05:16:02;44.65;;;27.80;;
71910;SDS011;59783;52.232;5.170;2022-11-20T05:18:29;57.97;;;27.67;;
71910;SDS011;59783;52.232;5.170;2022-11-20T05:20:55;51.58;;;29.08;;
71910;SDS011;59783;52.232;5.170;2022-11-20T05:23:21;45.70;;;28.77;;
71910;SDS011;59783;52.232;5.170;2022-11-20T05:25:46;43.75;;;27.25;;
71910;SDS011;59783;52.232;5.170;2022-11-20T05:28:12;46.90;;;28.35;;
71910;SDS011;59783;52.232;5.170;2022-11-20T05:30:37;50.75;;;28.85;;
71910;SDS011;59783;52.232;5.170;2022-11-20T05:33:02;45.17;;;27.88;;
71910;SDS011;59783;52.232;5.170;2022-11-20T05:35:28;44.38;;;28.42;;
71910;SDS011;59783;52.232;5.170;2022-11-20T05:37:53;46.53;;;28.42;;
71910;SDS011;59783;52.232;5.170;2022-11-20T05:40:18;44.38;;;27.48;;
71910;SDS011;59783;52.232;5.170;2022-11-20T05:42:44;48.20;;;32.97;;
71910;SDS011;59783;52.232;5.170;2022-11-20T05:45:09;44.42;;;28.15;;
71910;SDS011;59783;52.232;5.170;2022-11-20T05:47:34;43.38;;;27.33;;
71910;SDS011;59783;52.232;5.170;2022-11-20T05:50:00;43.42;;;27.30;;
71910;SDS011;59783;52.232;5.170;2022-11-20T05:52:29;41.42;;;25.88;;
71910;SDS011;59783;52.232;5.170;2022-11-20T05:54:55;41.35;;;26.42;;
71910;SDS011;59783;52.232;5.170;2022-11-20T05:57:20;41.60;;;32.97;;
71910;SDS011;59783;52.232;5.170;2022-11-20T05:59:45;50.17;;;27.42;;
71910;SDS011;59783;52.232;5.170;2022-11-20T06:02:11;41.58;;;26.80;;
71910;SDS011;59783;52.232;5.170;2022-11-20T06:04:36;42.33;;;26.50;;
71910;SDS011;59783;52.232;5.170;2022-11-20T06:07:01;45.30;;;27.23;;
71910;SDS011;59783;52.232;5.170;2022-11-20T06:09:27;43.10;;;28.52;;
71910;SDS011;59783;52.232;5.170;2022-11-20T06:11:52;43.75;;;26.95;;
71910;SDS011;59783;52.232;5.170;2022-11-20T06:14:18;43.20;;;27.17;;
71910;SDS011;59783;52.232;5.170;2022-11-20T06:16:43;41.65;;;26.25;;
71910;SDS011;59783;52.232;5.170;2022-11-20T06:19:09;39.22;;;26.40;;
71910;SDS011;59783;52.232;5.170;2022-11-20T06:21:34;41.20;;;26.45;;
71910;SDS011;59783;52.232;5.170;2022-11-20T06:23:59;41.13;;;26.75;;
71910;SDS011;59783;52.232;5.170;2022-11-20T06:26:25;50.15;;;27.33;;
71910;SDS011;59783;52.232;5.170;2022-11-20T06:28:52;45.55;;;28.45;;
71910;SDS011;59783;52.232;5.170;2022-11-20T06:31:19;47.83;;;27.70;;
71910;SDS011;59783;52.232;5.170;2022-11-20T06:33:46;38.70;;;26.23;;
71910;SDS011;59783;52.232;5.170;2022-11-20T06:36:12;45.28;;;26.75;;
71910;SDS011;59783;52.232;5.170;2022-11-20T06:38:39;42.67;;;27.52;;
71910;SDS011;59783;52.232;5.170;2022-11-20T06:41:05;39.40;;;26.52;;
71910;SDS011;59783;52.232;5.170;2022-11-20T06:43:31;39.08;;;26.27;;
71910;SDS011;59783;52.232;5.170;2022-11-20T06:45:57;47.42;;;28.05;;
71910;SDS011;59783;52.232;5.170;2022-11-20T06:48:23;47.67;;;29.05;;
71910;SDS011;59783;52.232;5.170;2022-11-20T06:50:50;50.90;;;29.58;;
71910;SDS011;59783;52.232;5.170;2022-11-20T06:53:15;53.25;;;29.08;;
71910;SDS011;59783;52.232;5.170;2022-11-20T06:55:44;43.97;;;28.40;;
71910;SDS011;59783;52.232;5.170;2022-11-20T06:58:10;41.92;;;28.40;;
71910;SDS011;59783;52.232;5.170;2022-11-20T07:00:36;48.22;;;29.20;;
71910;SDS011;59783;52.232;5.170;2022-11-20T07:03:03;45.92;;;33.97;;
71910;SDS011;59783;52.232;5.170;2022-11-20T07:05:29;45.00;;;27.73;;
71910;SDS011;59783;52.232;5.170;2022-11-20T07:07:55;41.83;;;27.25;;
71910;SDS011;59783;52.232;5.170;2022-11-20T07:10:21;45.25;;;27.85;;
71910;SDS011;59783;52.232;5.170;2022-11-20T07:12:50;49.33;;;27.60;;
71910;SDS011;59783;52.232;5.170;2022-11-20T07:15:17;42.08;;;26.45;;
71910;SDS011;59783;52.232;5.170;2022-11-20T07:17:42;45.83;;;29.63;;
71910;SDS011;59783;52.232;5.170;2022-11-20T07:20:08;42.78;;;26.92;;
71910;SDS011;59783;52.232;5.170;2022-11-20T07:22:33;45.28;;;27.02;;
71910;SDS011;59783;52.232;5.170;2022-11-20T07:24:59;46.70;;;27.08;;
71910;SDS011;59783;52.232;5.170;2022-11-20T07:27:24;45.00;;;26.38;;
71910;SDS011;59783;52.232;5.170;2022-11-20T07:29:50;43.38;;;27.52;;
71910;SDS011;59783;52.232;5.170;2022-11-20T07:32:15;41.83;;;27.65;;
71910;SDS011;59783;52.232;5.170;2022-11-20T07:34:41;44.20;;;28.98;;
71910;SDS011;59783;52.232;5.170;2022-11-20T07:37:06;46.65;;;32.58;;
71910;SDS011;59783;52.232;5.170;2022-11-20T07:39:31;45.78;;;27.92;;
71910;SDS011;59783;52.232;5.170;2022-11-20T07:41:57;41.72;;;27.80;;
71910;SDS011;59783;52.232;5.170;2022-11-20T07:44:22;47.53;;;29.08;;
71910;SDS011;59783;52.232;5.170;2022-11-20T07:46:48;42.35;;;27.25;;
71910;SDS011;59783;52.232;5.170;2022-11-20T07:49:13;45.28;;;28.30;;
71910;SDS011;59783;52.232;5.170;2022-11-20T07:51:38;41.85;;;26.65;;
71910;SDS011;59783;52.232;5.170;2022-11-20T07:54:04;53.38;;;31.40;;
71910;SDS011;59783;52.232;5.170;2022-11-20T07:56:29;46.90;;;28.50;;
71910;SDS011;59783;52.232;5.170;2022-11-20T07:58:54;46.67;;;27.38;;
71910;SDS011;59783;52.232;5.170;2022-11-20T08:01:21;46.13;;;28.73;;
71910;SDS011;59783;52.232;5.170;2022-11-20T08:03:47;45.70;;;27.23;;
71910;SDS011;59783;52.232;5.170;2022-11-20T08:06:12;45.50;;;33.08;;
71910;SDS011;59783;52.232;5.170;2022-11-20T08:08:37;42.92;;;28.00;;
71910;SDS011;59783;52.232;5.170;2022-11-20T08:11:04;40.58;;;27.38;;
71910;SDS011;59783;52.232;5.170;2022-11-20T08:13:48;48.22;;;35.53;;
71910;SDS011;59783;52.232;5.170;2022-11-20T08:16:32;43.78;;;28.92;;
71910;SDS011;59783;52.232;5.170;2022-11-20T08:18:58;48.00;;;29.48;;
71910;SDS011;59783;52.232;5.170;2022-11-20T08:21:23;43.47;;;27.88;;
71910;SDS011;59783;52.232;5.170;2022-11-20T08:23:48;44.92;;;28.58;;
71910;SDS011;59783;52.232;5.170;2022-11-20T08:26:14;40.10;;;27.80;;
71910;SDS011;59783;52.232;5.170;2022-11-20T08:28:39;43.58;;;29.25;;
71910;SDS011;59783;52.232;5.170;2022-11-20T08:31:05;39.30;;;28.15;;
71910;SDS011;59783;52.232;5.170;2022-11-20T08:33:30;42.85;;;28.58;;
71910;SDS011;59783;52.232;5.170;2022-11-20T08:36:00;47.55;;;29.08;;
71910;SDS011;59783;52.232;5.170;2022-11-20T08:38:26;41.88;;;28.67;;
71910;SDS011;59783;52.232;5.170;2022-11-20T08:40:51;40.75;;;29.08;;
71910;SDS011;59783;52.232;5.170;2022-11-20T08:43:39;40.65;;;29.17;;
71910;SDS011;59783;52.232;5.170;2022-11-20T08:46:04;47.00;;;29.08;;
71910;SDS011;59783;52.232;5.170;2022-11-20T08:48:30;47.28;;;29.70;;
71910;SDS011;59783;52.232;5.170;2022-11-20T08:50:57;47.55;;;29.50;;
71910;SDS011;59783;52.232;5.170;2022-11-20T08:53:23;42.67;;;29.30;;
71910;SDS011;59783;52.232;5.170;2022-11-20T08:55:49;44.28;;;29.80;;
71910;SDS011;59783;52.232;5.170;2022-11-20T08:58:14;42.88;;;28.52;;
71910;SDS011;59783;52.232;5.170;2022-11-20T09:00:39;47.17;;;28.33;;
71910;SDS011;59783;52.232;5.170;2022-11-20T09:03:04;46.67;;;28.80;;
71910;SDS011;59783;52.232;5.170;2022-11-20T09:05:30;42.63;;;29.30;;
71910;SDS011;59783;52.232;5.170;2022-11-20T09:07:55;39.53;;;26.70;;
71910;SDS011;59783;52.232;5.170;2022-11-20T09:10:21;41.65;;;26.70;;
71910;SDS011;59783;52.232;5.170;2022-11-20T09:12:48;46.25;;;27.20;;
71910;SDS011;59783;52.232;5.170;2022-11-20T09:15:14;43.92;;;28.75;;
71910;SDS011;59783;52.232;5.170;2022-11-20T09:17:39;43.53;;;28.60;;
71910;SDS011;59783;52.232;5.170;2022-11-20T09:20:05;46.72;;;28.02;;
71910;SDS011;59783;52.232;5.170;2022-11-20T09:22:30;49.22;;;29.00;;
71910;SDS011;59783;52.232;5.170;2022-11-20T09:24:55;47.83;;;30.60;;
71910;SDS011;59783;52.232;5.170;2022-11-20T09:27:21;47.50;;;30.27;;
71910;SDS011;59783;52.232;5.170;2022-11-20T09:29:46;44.58;;;29.13;;
71910;SDS011;59783;52.232;5.170;2022-11-20T09:32:12;50.47;;;36.75;;
71910;SDS011;59783;52.232;5.170;2022-11-20T09:34:37;43.92;;;28.00;;
71910;SDS011;59783;52.232;5.170;2022-11-20T09:37:03;43.30;;;29.02;;
71910;SDS011;59783;52.232;5.170;2022-11-20T09:39:28;47.17;;;30.98;;
71910;SDS011;59783;52.232;5.170;2022-11-20T09:47:28;47.45;;;29.98;;
71910;SDS011;59783;52.232;5.170;2022-11-20T09:55:20;45.00;;;28.83;;
71910;SDS011;59783;52.232;5.170;2022-11-20T09:57:46;46.08;;;29.08;;
71910;SDS011;59783;52.232;5.170;2022-11-20T10:00:13;45.90;;;31.08;;
71910;SDS011;59783;52.232;5.170;2022-11-20T10:03:00;46.80;;;30.73;;
71910;SDS011;59783;52.232;5.170;2022-11-20T10:05:29;51.17;;;30.55;;
71910;SDS011;59783;52.232;5.170;2022-11-20T10:21:53;46.78;;;30.90;;
71910;SDS011;59783;52.232;5.170;2022-11-20T10:25:02;53.42;;;30.88;;
71910;SDS011;59783;52.232;5.170;2022-11-20T10:30:12;52.90;;;31.10;;
71910;SDS011;59783;52.232;5.170;2022-11-20T10:38:00;53.58;;;30.48;;
71910;SDS011;59783;52.232;5.170;2022-11-20T10:40:44;53.78;;;32.03;;
71910;SDS011;59783;52.232;5.170;2022-11-20T10:45:45;53.20;;;32.08;;
71910;SDS011;59783;52.232;5.170;2022-11-20T10:48:26;56.47;;;33.00;;
71910;SDS011;59783;52.232;5.170;2022-11-20T10:56:00;53.00;;;31.90;;
71910;SDS011;59783;52.232;5.170;2022-11-20T11:01:18;56.63;;;32.63;;
71910;SDS011;59783;52.232;5.170;2022-11-20T11:03:48;56.45;;;33.55;;
71910;SDS011;59783;52.232;5.170;2022-11-20T11:08:44;53.22;;;32.40;;
71910;SDS011;59783;52.232;5.170;2022-11-20T11:13:48;56.60;;;30.88;;
71910;SDS011;59783;52.232;5.170;2022-11-20T11:16:21;62.83;;;40.42;;
71910;SDS011;59783;52.232;5.170;2022-11-20T11:18:48;51.22;;;31.63;;
71910;SDS011;59783;52.232;5.170;2022-11-20T11:21:19;57.08;;;33.05;;
71910;SDS011;59783;52.232;5.170;2022-11-20T11:23:59;58.72;;;32.95;;
71910;SDS011;59783;52.232;5.170;2022-11-20T11:26:26;65.90;;;35.75;;
71910;SDS011;59783;52.232;5.170;2022-11-20T11:28:59;57.42;;;34.38;;
71910;SDS011;59783;52.232;5.170;2022-11-20T11:31:26;61.08;;;34.40;;
71910;SDS011;59783;52.232;5.170;2022-11-20T11:34:03;65.38;;;36.42;;
71910;SDS011;59783;52.232;5.170;2022-11-20T11:36:32;62.83;;;33.60;;
71910;SDS011;59783;52.232;5.170;2022-11-20T11:38:59;66.97;;;34.28;;
71910;SDS011;59783;52.232;5.170;2022-11-20T11:41:27;64.00;;;39.08;;
71910;SDS011;59783;52.232;5.170;2022-11-20T11:43:57;59.28;;;31.08;;
71910;SDS011;59783;52.232;5.170;2022-11-20T11:46:49;73.35;;;34.40;;
71910;SDS011;59783;52.232;5.170;2022-11-20T11:49:18;65.93;;;34.40;;
71910;SDS011;59783;52.232;5.170;2022-11-20T11:54:32;70.05;;;34.70;;
71910;SDS011;59783;52.232;5.170;2022-11-20T11:57:05;60.58;;;31.85;;
71910;SDS011;59783;52.232;5.170;2022-11-20T11:59:41;85.07;;;41.47;;
71910;SDS011;59783;52.232;5.170;2022-11-20T12:02:15;69.82;;;34.17;;
71910;SDS011;59783;52.232;5.170;2022-11-20T12:07:45;80.50;;;34.05;;
71910;SDS011;59783;52.232;5.170;2022-11-20T12:10:21;72.57;;;33.47;;
71910;SDS011;59783;52.232;5.170;2022-11-20T12:12:50;65.95;;;34.88;;
71910;SDS011;59783;52.232;5.170;2022-11-20T12:15:31;112.03;;;50.67;;
71910;SDS011;59783;52.232;5.170;2022-11-20T12:17:58;76.07;;;38.33;;
71910;SDS011;59783;52.232;5.170;2022-11-20T12:20:25;70.40;;;36.00;;
71910;SDS011;59783;52.232;5.170;2022-11-20T12:25:38;73.63;;;34.03;;
71910;SDS011;59783;52.232;5.170;2022-11-20T12:36:37;93.78;;;39.65;;
71910;SDS011;59783;52.232;5.170;2022-11-20T12:42:00;86.15;;;38.20;;
71910;SDS011;59783;52.232;5.170;2022-11-20T12:50:38;105.97;;;40.67;;
71910;SDS011;59783;52.232;5.170;2022-11-20T12:53:21;129.45;;;41.58;;
71910;SDS011;59783;52.232;5.170;2022-11-20T13:01:32;101.18;;;44.03;;
71910;SDS011;59783;52.232;5.170;2022-11-20T13:06:44;81.05;;;37.80;;
71910;SDS011;59783;52.232;5.170;2022-11-20T13:09:10;85.18;;;42.92;;
71910;SDS011;59783;52.232;5.170;2022-11-20T13:17:10;53.90;;;30.48;;
71910;SDS011;59783;52.232;5.170;2022-11-20T13:19:42;68.10;;;35.70;;
71910;SDS011;59783;52.232;5.170;2022-11-20T13:22:23;98.90;;;40.00;;
71910;SDS011;59783;52.232;5.170;2022-11-20T13:24:52;79.03;;;38.28;;
71910;SDS011;59783;52.232;5.170;2022-11-20T13:27:18;92.05;;;38.83;;
71910;SDS011;59783;52.232;5.170;2022-11-20T13:29:46;90.65;;;39.28;;
71910;SDS011;59783;52.232;5.170;2022-11-20T13:32:24;109.90;;;43.20;;
71910;SDS011;59783;52.232;5.170;2022-11-20T13:34:53;91.22;;;44.55;;
71910;SDS011;59783;52.232;5.170;2022-11-20T13:37:27;95.03;;;39.72;;
71910;SDS011;59783;52.232;5.170;2022-11-20T13:42:35;102.55;;;41.13;;
71910;SDS011;59783;52.232;5.170;2022-11-20T13:45:08;104.75;;;43.45;;
71910;SDS011;59783;52.232;5.170;2022-11-20T13:47:35;96.45;;;39.40;;
71910;SDS011;59783;52.232;5.170;2022-11-20T13:50:02;96.22;;;40.55;;
71910;SDS011;59783;52.232;5.170;2022-11-20T13:55:35;80.30;;;36.28;;
71910;SDS011;59783;52.232;5.170;2022-11-20T13:58:10;98.97;;;40.30;;
71910;SDS011;59783;52.232;5.170;2022-11-20T14:03:30;88.43;;;41.35;;
71910;SDS011;59783;52.232;5.170;2022-11-20T14:06:02;106.18;;;43.88;;
71910;SDS011;59783;52.232;5.170;2022-11-20T14:11:05;133.50;;;45.40;;
71910;SDS011;59783;52.232;5.170;2022-11-20T14:13:39;99.63;;;40.75;;
71910;SDS011;59783;52.232;5.170;2022-11-20T14:16:04;98.90;;;40.20;;
71910;SDS011;59783;52.232;5.170;2022-11-20T14:18:30;117.32;;;40.78;;
71910;SDS011;59783;52.232;5.170;2022-11-20T14:20:55;121.40;;;39.20;;
71910;SDS011;59783;52.232;5.170;2022-11-20T14:23:27;127.97;;;40.42;;
71910;SDS011;59783;52.232;5.170;2022-11-20T14:25:53;104.30;;;39.50;;
71910;SDS011;59783;52.232;5.170;2022-11-20T14:28:21;101.03;;;36.40;;
71910;SDS011;59783;52.232;5.170;2022-11-20T14:30:50;86.80;;;34.95;;
71910;SDS011;59783;52.232;5.170;2022-11-20T14:33:16;92.60;;;35.58;;
71910;SDS011;59783;52.232;5.170;2022-11-20T14:35:46;89.93;;;35.83;;
71910;SDS011;59783;52.232;5.170;2022-11-20T14:38:13;99.75;;;39.30;;
71910;SDS011;59783;52.232;5.170;2022-11-20T14:40:40;99.35;;;42.55;;
71910;SDS011;59783;52.232;5.170;2022-11-20T14:45:43;98.13;;;37.97;;
71910;SDS011;59783;52.232;5.170;2022-11-20T14:48:10;87.30;;;37.22;;
71910;SDS011;59783;52.232;5.170;2022-11-20T14:50:35;115.78;;;41.20;;
71910;SDS011;59783;52.232;5.170;2022-11-20T14:53:03;106.97;;;45.00;;
71910;SDS011;59783;52.232;5.170;2022-11-20T14:55:37;108.88;;;47.22;;
71910;SDS011;59783;52.232;5.170;2022-11-20T14:58:23;164.85;;;56.80;;
71910;SDS011;59783;52.232;5.170;2022-11-20T15:01:12;85.13;;;42.05;;
71910;SDS011;59783;52.232;5.170;2022-11-20T15:03:38;64.97;;;36.95;;
71910;SDS011;59783;52.232;5.170;2022-11-20T15:06:05;73.93;;;38.92;;
71910;SDS011;59783;52.232;5.170;2022-11-20T15:08:32;59.22;;;35.65;;
71910;SDS011;59783;52.232;5.170;2022-11-20T15:10:58;91.18;;;43.33;;
71910;SDS011;59783;52.232;5.170;2022-11-20T15:13:26;73.40;;;38.95;;
71910;SDS011;59783;52.232;5.170;2022-11-20T15:15:56;58.15;;;32.97;;
71910;SDS011;59783;52.232;5.170;2022-11-20T15:20:54;57.08;;;32.22;;
71910;SDS011;59783;52.232;5.170;2022-11-20T15:23:20;68.30;;;34.55;;
71910;SDS011;59783;52.232;5.170;2022-11-20T15:25:45;60.97;;;33.75;;
71910;SDS011;59783;52.232;5.170;2022-11-20T15:28:13;58.33;;;34.40;;
71910;SDS011;59783;52.232;5.170;2022-11-20T15:30:42;58.75;;;31.75;;
71910;SDS011;59783;52.232;5.170;2022-11-20T15:33:08;66.85;;;33.13;;
71910;SDS011;59783;52.232;5.170;2022-11-20T15:35:33;78.35;;;41.40;;
71910;SDS011;59783;52.232;5.170;2022-11-20T15:37:59;69.95;;;34.63;;
71910;SDS011;59783;52.232;5.170;2022-11-20T15:40:24;57.40;;;33.50;;
71910;SDS011;59783;52.232;5.170;2022-11-20T15:42:49;69.10;;;34.85;;
71910;SDS011;59783;52.232;5.170;2022-11-20T15:45:42;78.93;;;41.28;;
71910;SDS011;59783;52.232;5.170;2022-11-20T15:48:11;86.45;;;49.65;;
71910;SDS011;59783;52.232;5.170;2022-11-20T15:50:41;79.60;;;34.55;;
71910;SDS011;59783;52.232;5.170;2022-11-20T15:53:11;76.18;;;34.60;;
71910;SDS011;59783;52.232;5.170;2022-11-20T15:55:37;73.25;;;35.55;;
71910;SDS011;59783;52.232;5.170;2022-11-20T15:58:02;63.10;;;34.30;;
71910;SDS011;59783;52.232;5.170;2022-11-20T16:00:28;70.97;;;34.72;;
71910;SDS011;59783;52.232;5.170;2022-11-20T16:02:53;73.75;;;35.45;;
71910;SDS011;59783;52.232;5.170;2022-11-20T16:05:19;61.70;;;33.40;;
71910;SDS011;59783;52.232;5.170;2022-11-20T16:07:44;66.50;;;36.33;;
71910;SDS011;59783;52.232;5.170;2022-11-20T16:10:09;72.00;;;38.70;;
71910;SDS011;59783;52.232;5.170;2022-11-20T16:12:35;66.00;;;34.90;;
71910;SDS011;59783;52.232;5.170;2022-11-20T16:15:19;66.55;;;36.38;;
71910;SDS011;59783;52.232;5.170;2022-11-20T16:18:03;57.00;;;34.00;;